• Join FlightAware (Why Join?)
  • Login
  • US Flag 
04:09PM EDT


 

Airport Tracker/Info


-or-


 

Live Flight TrackerFlight Track Log ✈ SWA3247 ✈ 21-Jun-2013 ✈ KLAS - KALB

Flight Track Log - Related Links

Times and Time Zones

All times are in EDT time to prevent confusion due to time zone crossing. See the SWA3247 flight status page for this flight to view local times or setup timezone preferences in your user account.

Time Position Orientation Groundspeed Altitude Reporting Facility
EDT Latitude Longitude Course Direction KTS MPH feet Rate Location/Type
09:05PM 36.0772 -115.1731 268° West 163 188 3,200  Level Los Angeles Center
09:06PM 36.0750 -115.2431 268° West 207 238 5,400 2,100 Climbing Los Angeles Center
09:07PM 36.0936 -115.2822 300° West 231 266 6,900 2,520 Climbing Los Angeles Center
09:08PM 36.1606 -115.2758 North 267 307 9,800 2,220 Climbing Los Angeles Center
09:09PM 36.1956 -115.1619 69° East 314 361 11,500 2,160 Climbing Los Angeles Center
09:10PM 36.1969 -115.0381 89° East 358 412 14,300 2,520 Climbing Los Angeles Center
09:11PM 36.1983 -114.9075 89° East 376 433 16,800 2,460 Climbing Los Angeles Center
09:12PM 36.1994 -114.7708 89° East 394 453 19,400 2,460 Climbing Los Angeles Center
09:13PM 36.1972 -114.6256 91° East 417 480 21,900 2,220 Climbing Los Angeles Center
09:14PM 36.1947 -114.4769 91° East 430 495 24,100 1,920 Climbing Los Angeles Center
09:15PM 36.1939 -114.3222 90° East 447 514 25,900 1,800 Climbing Los Angeles Center
09:16PM 36.2064 -114.1292 85° East 469 540 27,900 1,620 Climbing Los Angeles Center
09:17PM 36.2267 -113.9622 81° East 487 560 29,300 1,260 Climbing Los Angeles Center
09:18PM 36.2461 -113.7906 82° East 500 575 30,600 1,320 Climbing Los Angeles Center
09:19PM 36.2675 -113.6131 81° East 516 594 32,100 1,560 Climbing Los Angeles Center
09:20PM 36.2878 -113.4372 82° East 517 595 33,900 1,560 Climbing Los Angeles Center
09:21PM 36.3081 -113.2619 82° East 515 593 35,400 1,380 Climbing Los Angeles Center
09:22PM 36.3589 -113.0906 70° East 511 588 36,800 720 Climbing Los Angeles Center
09:23PM 36.4261 -112.8967 67° East 511 588 37,000 60 Climbing Los Angeles Center
09:24PM 36.4811 -112.7353 67° East 510 587 37,000  Level Los Angeles Center
09:25PM 36.5353 -112.5742 67° East 508 585 37,000  Level Los Angeles Center
09:26PM 36.5900 -112.4136 67° East 506 582 37,000  Level Los Angeles Center
09:27PM 36.6433 -112.2533 67° East 504 580 37,000  Level Los Angeles Center
09:28PM 36.6975 -112.0922 67° East 506 582 37,000  Level Los Angeles Center
09:29PM 36.7606 -111.9000 68° East 503 579 37,000  Level Los Angeles Center
09:31PM 36.8133 -111.7406 67° East 502 578 37,000  Level Los Angeles Center
09:32PM 36.8656 -111.5797 68° East 502 578 37,000  Level Los Angeles Center
09:32PM 36.8858 -111.5164 68° East 503 579 37,000  Level Denver Center
09:33PM 36.9486 -111.3228 68° East 503 579 37,000  Level Denver Center
09:34PM 37.0011 -111.1600 68° East 506 582 37,000  Level Denver Center
09:35PM 37.0531 -110.9961 68° East 510 587 37,000  Level Denver Center
09:36PM 37.1061 -110.8342 68° East 504 580 37,000  Level Denver Center
09:37PM 37.1575 -110.6711 68° East 505 581 37,000  Level Denver Center
09:39PM 37.2186 -110.4769 68° East 501 577 37,000  Level Denver Center
09:40PM 37.2903 -110.2500 68° East 501 577 37,000  Level Denver Center
09:41PM 37.3389 -110.0917 69° East 497 572 37,000  Level Denver Center
09:42PM 37.3872 -109.9364 69° East 497 572 37,000  Level Denver Center
09:43PM 37.4350 -109.7803 69° East 496 571 37,000  Level Denver Center
09:44PM 37.4906 -109.5981 69° East 498 573 37,000  Level Denver Center
09:45PM 37.5458 -109.4161 69° East 497 572 37,000  Level Denver Center
09:46PM 37.6008 -109.2347 69° East 495 570 37,000  Level Denver Center
09:47PM 37.6547 -109.0533 69° East 494 568 37,000  Level Denver Center
09:48PM 37.7011 -108.8967 69° East 496 571 37,000  Level Denver Center
09:49PM 37.7558 -108.7125 69° East 500 575 37,000  Level Denver Center
09:50PM 37.8014 -108.5564 70° East 496 571 37,000  Level Denver Center
09:51PM 37.8550 -108.3750 69° East 492 566 37,000  Level Denver Center
09:52PM 37.9006 -108.2178 70° East 496 571 37,000  Level Denver Center
09:53PM 37.9464 -108.0606 70° East 498 573 37,000  Level Denver Center
09:54PM 37.9994 -107.8753 70° East 498 573 37,000  Level Denver Center
09:55PM 38.0433 -107.7192 70° East 491 565 37,000  Level Denver Center
09:56PM 38.0972 -107.5314 70° East 493 567 37,000  Level Denver Center
09:57PM 38.1411 -107.3714 71° East 500 575 37,000  Level Denver Center
09:58PM 38.1928 -107.1869 70° East 497 572 37,000  Level Denver Center
10:00PM 38.2333 -107.0411 70° East 502 578 37,000  Level Denver Center
10:01PM 38.2886 -106.8397 71° East 503 579 37,000  Level Denver Center
10:02PM 38.3328 -106.6789 71° East 503 579 37,000  Level Denver Center
10:03PM 38.3808 -106.5039 71° East 506 582 37,000  Level Denver Center
10:04PM 38.4264 -106.3356 71° East 506 582 37,000  Level Denver Center
10:05PM 38.4739 -106.1569 71° East 503 579 37,000  Level Denver Center
10:06PM 38.5183 -105.9919 71° East 510 587 37,000  Level Denver Center
10:07PM 38.5753 -105.7742 71° East 507 583 37,000  Level Denver Center
10:08PM 38.6194 -105.6075 71° East 500 575 37,000  Level Denver Center
10:09PM 38.6622 -105.4400 72° East 498 573 37,000  Level Denver Center
10:10PM 38.7153 -105.2375 71° East 501 577 37,000  Level Denver Center
10:11PM 38.7586 -105.0689 72° East 502 578 37,000  Level Denver Center
10:12PM 38.8028 -104.9011 71° East 500 575 37,000  Level Denver Center
10:13PM 38.8367 -104.7667 72° East 500 575 37,000  Level Denver Center
10:14PM 38.8878 -104.5644 72° East 500 575 37,000  Level Denver Center
10:15PM 38.9369 -104.3650 72° East 494 568 37,000  Level Denver Center
10:16PM 38.9781 -104.1981 72° East 494 568 37,000  Level Denver Center
10:17PM 39.0203 -104.0308 72° East 495 570 37,000  Level Denver Center
10:18PM 39.0522 -103.8989 73° East 490 564 37,000  Level Denver Center
10:19PM 39.1011 -103.7006 72° East 486 559 37,000  Level Denver Center
10:20PM 39.1394 -103.5406 73° East 474 545 37,000  Level Denver Center
10:21PM 39.1853 -103.3503 73° East 466 536 37,000  Level Denver Center
10:22PM 39.2236 -103.1919 73° East 466 536 37,000  Level Denver Center
10:23PM 39.2600 -103.0347 73° East 461 531 37,000  Level Denver Center
10:24PM 39.2969 -102.8764 73° East 462 532 37,000  Level Denver Center
10:26PM 39.3386 -102.6967 73° East 457 526 37,000  Level Denver Center
10:27PM 39.3692 -102.5647 73° East 453 521 37,000  Level Denver Center
10:28PM 39.4119 -102.3819 73° East 447 514 37,000  Level Denver Center
10:29PM 39.4442 -102.2442 73° East 447 514 37,000  Level Denver Center
10:30PM 39.4825 -102.0742 74° East 444 511 37,000  Level Denver Center
10:31PM 39.5136 -101.9267 75° East 444 511 37,000  Level Denver Center
10:32PM 39.5522 -101.7586 73° East 437 503 37,000  Level Denver Center
10:33PM 39.5842 -101.6147 74° East 434 499 37,000  Level Denver Center
10:34PM 39.6208 -101.4472 74° East 435 501 37,000  Level Denver Center
10:35PM 39.6525 -101.3056 74° East 430 495 37,000  Level Denver Center
10:36PM 39.6886 -101.1375 74° East 434 499 37,000  Level Denver Center
10:37PM 39.7192 -100.9944 74° East 433 498 37,000  Level Denver Center
10:38PM 39.7550 -100.8267 74° East 433 498 37,000  Level Denver Center
10:39PM 39.7858 -100.6836 74° East 432 497 37,000  Level Denver Center
10:40PM 39.8164 -100.5378 75° East 437 503 37,000  Level Denver Center
10:41PM 39.8519 -100.3675 75° East 438 504 37,000  Level Denver Center
10:42PM 39.8844 -100.2092 75° East 448 516 37,000  Level Denver Center
10:43PM 39.9106 -100.0869 74° East 443 510 37,000  Level Denver Center
10:44PM 39.9489 -99.8983 75° East 448 516 37,000  Level Denver Center
10:45PM 39.9803 -99.7433 75° East 445 512 37,000  Level Denver Center
10:46PM 40.0119 -99.5875 75° East 445 512 37,000  Level Denver Center
10:47PM 40.0497 -99.3989 75° East 447 514 37,000  Level Denver Center
10:48PM 40.0800 -99.2433 76° East 445 512 37,000  Level Denver Center
10:49PM 40.1119 -99.0867 75° East 447 514 37,000  Level Denver Center
10:50PM 40.1422 -98.9297 76° East 447 514 37,000  Level Denver Center
10:51PM 40.1728 -98.7736 76° East 446 513 37,000  Level Denver Center
10:52PM 40.2092 -98.5822 76° East 451 519 37,000  Level Denver Center
10:54PM 40.2453 -98.3922 76° East 452 520 37,000  Level Minneapolis Center
10:55PM 40.2753 -98.2308 76° East 454 522 37,000  Level Minneapolis Center
10:56PM 40.3044 -98.0711 76° East 455 524 37,000  Level Minneapolis Center
10:57PM 40.3411 -97.8769 76° East 456 525 37,000  Level Minneapolis Center
10:58PM 40.3775 -97.6811 76° East 459 528 37,000  Level Minneapolis Center
10:59PM 40.4064 -97.5156 77° East 463 533 37,000  Level Minneapolis Center
11:00PM 40.4369 -97.3522 76° East 463 533 37,000  Level Minneapolis Center
11:01PM 40.4664 -97.1864 77° East 465 535 37,000  Level Minneapolis Center
11:02PM 40.4956 -97.0236 77° East 463 533 37,000  Level Minneapolis Center
11:03PM 40.5244 -96.8594 77° East 462 532 37,000  Level Minneapolis Center
11:05PM 40.5833 -96.5300 77° East 465 535 37,000  Level Minneapolis Center
11:06PM 40.6106 -96.3664 78° East 462 532 37,000  Level Minneapolis Center
11:07PM 40.6439 -96.1692 77° East 461 531 37,000  Level Minneapolis Center
11:08PM 40.6706 -96.0028 78° East 464 534 37,000  Level Minneapolis Center
11:09PM 40.6994 -95.8367 77° East 466 536 37,000  Level Minneapolis Center
11:10PM 40.7269 -95.6683 78° East 469 540 37,000  Level Minneapolis Center
11:11PM 40.7483 -95.5142 80° East 466 536 37,000  Level Minneapolis Center
11:12PM 40.7739 -95.3483 78° East 466 536 37,000  Level Minneapolis Center
11:13PM 40.8031 -95.1808 77° East 469 540 37,000  Level Minneapolis Center
11:14PM 40.8353 -94.9800 78° East 470 541 37,000  Level Minneapolis Center
11:15PM 40.8592 -94.8139 79° East 468 539 37,000  Level Minneapolis Center
11:16PM 40.8894 -94.6450 77° East 472 543 37,000  Level Minneapolis Center
11:17PM 40.9153 -94.4786 78° East 468 539 37,000  Level Minneapolis Center
11:18PM 40.9381 -94.3125 80° East 466 536 37,000  Level Minneapolis Center
11:19PM 40.9633 -94.1447 79° East 466 536 37,000  Level Minneapolis Center
11:20PM 40.9881 -93.9781 79° East 466 536 37,000  Level Minneapolis Center
11:21PM 41.0181 -93.7786 79° East 465 535 37,000  Level Minneapolis Center
11:22PM 41.0425 -93.6128 79° East 463 533 37,000  Level Minneapolis Center
11:23PM 41.0664 -93.4469 79° East 461 531 37,000  Level Minneapolis Center
11:24PM 41.0903 -93.2817 79° East 461 531 37,000  Level Minneapolis Center
11:25PM 41.1136 -93.1150 79° East 461 531 37,000  Level Minneapolis Center
11:26PM 41.1375 -92.9492 79° East 461 531 37,000  Level Minneapolis Center
11:27PM 41.1594 -92.7833 80° East 458 527 37,000  Level Minneapolis Center
11:29PM 41.1822 -92.6181 80° East 458 527 37,000 540 Level Minneapolis Center
11:30PM 41.2056 -92.4464 80° East 467 537 38,100 960 Climbing Minneapolis Center
11:31PM 41.2283 -92.2750 80° East 473 544 39,000 420 Climbing Minneapolis Center
11:32PM 41.2494 -92.1094 80° East 464 534 39,000  Level Minneapolis Center
11:33PM 41.2742 -91.9131 80° East 455 524 39,000  Level Minneapolis Center
11:34PM 41.2947 -91.7583 80° East 456 525 39,000  Level Minneapolis Center
11:35PM 41.3192 -91.5628 80° East 453 521 39,000  Level Chicago Center
11:36PM 41.3436 -91.3658 81° East 454 522 39,000  Level Chicago Center
11:37PM 41.3617 -91.2236 80° East 452 520 39,000  Level Chicago Center
11:38PM 41.3825 -91.0586 80° East 451 519 39,000  Level Chicago Center
11:39PM 41.4017 -90.8939 81° East 450 518 39,000  Level Chicago Center
11:40PM 41.4217 -90.7281 81° East 451 519 39,000  Level Chicago Center
11:41PM 41.4444 -90.5311 81° East 448 516 39,000  Level Chicago Center
11:42PM 41.4642 -90.3653 81° East 450 518 39,000  Level Chicago Center
11:43PM 41.4828 -90.1997 81° East 450 518 39,000  Level Chicago Center
11:44PM 41.5008 -90.0394 81° East 442 509 39,000  Level Chicago Center
11:45PM 41.5189 -89.8764 82° East 441 507 39,000  Level Chicago Center
11:46PM 41.5364 -89.7128 82° East 442 509 39,000  Level Chicago Center
11:47PM 41.5550 -89.5489 81° East 443 510 39,000  Level Chicago Center
11:48PM 41.5703 -89.3967 82° East 443 510 39,000  Level Chicago Center
11:49PM 41.5889 -89.2333 81° East 447 514 39,000  Level Chicago Center
11:50PM 41.6022 -89.0714 84° East 442 509 39,000  Level Chicago Center
11:51PM 41.6236 -88.8739 82° East 448 516 39,000  Level Chicago Center
11:52PM 41.6414 -88.7042 82° East 460 529 39,000  Level Chicago Center
11:53PM 41.6581 -88.5375 82° East 457 526 39,000  Level Chicago Center
11:54PM 41.6747 -88.3689 82° East 457 526 39,000  Level Chicago Center
11:55PM 41.6908 -88.2008 83° East 455 524 39,000  Level Chicago Center
11:56PM 41.7069 -88.0303 83° East 460 529 39,000  Level Chicago Center
11:57PM 41.7219 -87.8600 83° East 459 528 39,000  Level Chicago Center
11:58PM 41.7361 -87.6908 84° East 457 526 39,000  Level Chicago Center
11:59PM 41.7517 -87.5208 83° East 460 529 39,000  Level Chicago Center
12:00AM 41.7672 -87.3514 83° East 461 531 39,000  Level Chicago Center
12:01AM 41.7817 -87.1822 83° East 460 529 39,000  Level Chicago Center
12:02AM 41.7983 -86.9833 84° East 454 522 39,000  Level Chicago Center
12:03AM 41.8119 -86.8181 84° East 448 516 39,000  Level Chicago Center
12:04AM 41.8247 -86.6656 84° East 446 513 39,000  Level Chicago Center
12:05AM 41.8375 -86.5003 84° East 447 514 39,000  Level Chicago Center
12:06AM 41.8500 -86.3358 84° East 444 511 39,000  Level Chicago Center
12:07AM 41.8639 -86.1711 83° East 444 511 39,000  Level Chicago Center
12:08AM 41.8758 -86.0078 84° East 442 509 39,000  Level Chicago Center
12:09AM 41.8889 -85.8436 84° East 441 507 39,000  Level Chicago Center
12:10AM 41.9017 -85.6789 84° East 442 509 39,000  Level Chicago Center
12:11AM 41.9156 -85.5136 84° East 442 509 39,000  Level Chicago Center
12:12AM 41.9264 -85.3489 85° East 438 504 39,000  Level Chicago Center
12:13AM 41.9367 -85.1858 85° East 440 506 39,000  Level Chicago Center
12:14AM 41.9481 -85.0231 85° East 439 505 39,000  Level Chicago Center
12:15AM 41.9583 -84.8594 85° East 440 506 39,000  Level Chicago Center
12:17AM 41.9706 -84.6967 84° East 439 505 39,000  Level Chicago Center
12:18AM 41.9922 -84.5278 80° East 440 506 39,000  Level Chicago Center
12:19AM 42.0106 -84.3650 81° East 442 509 39,000  Level Chicago Center
12:20AM 42.0306 -84.2031 81° East 441 507 39,000  Level Chicago Center
12:21AM 42.0481 -84.0411 82° East 439 505 39,000  Level Chicago Center
12:22AM 42.0703 -83.8458 81° East 442 509 39,000  Level Chicago Center
12:23AM 42.0889 -83.6822 81° East 442 509 39,000  Level Chicago Center
12:24AM 42.1089 -83.4856 82° East 444 511 39,000  Level Cleveland Center
12:25AM 42.1253 -83.3186 82° East 444 511 39,000  Level Cleveland Center
12:26AM 42.1419 -83.1456 83° East 450 518 39,000  Level Cleveland Center
12:27AM 42.1619 -82.9839 80° East 450 518 39,000  Level Cleveland Center
12:28AM 42.1781 -82.8164 83° East 445 512 39,000  Level Cleveland Center
12:29AM 42.1958 -82.6458 82° East 445 512 39,000  Level Cleveland Center
12:30AM 42.2131 -82.4811 82° East 445 512 39,000  Level Cleveland Center
12:31AM 42.2283 -82.3161 83° East 445 512 39,000  Level Cleveland Center
12:32AM 42.2472 -82.1483 81° East 445 512 39,000  Level Cleveland Center
12:33AM 42.2664 -81.9664 82° East 445 512 39,000  Level Cleveland Center
12:34AM 42.2808 -81.7983 83° East 450 518 39,000  Level Cleveland Center
12:35AM 42.2950 -81.6331 83° East 444 511 39,000  Level Cleveland Center
12:36AM 42.3108 -81.4817 82° East 450 518 39,000  Level Cleveland Center
12:37AM 42.3267 -81.3133 83° East 450 518 39,000  Level Cleveland Center
12:38AM 42.3400 -81.1478 84° East 445 512 39,000  Level Cleveland Center
12:39AM 42.3553 -80.9794 83° East 445 512 39,000  Level Cleveland Center
12:40AM 42.3703 -80.8136 83° East 445 512 39,000  Level Cleveland Center
12:41AM 42.3831 -80.6422 84° East 445 512 39,000  Level Cleveland Center
12:42AM 42.3975 -80.4567 84° East 450 518 39,000  Level Cleveland Center
12:43AM 42.4119 -80.2878 83° East 456 525 39,000  Level Cleveland Center
12:44AM 42.4258 -80.1164 84° East 462 532 39,000  Level Cleveland Center
12:45AM 42.4397 -79.9614 83° East 467 537 39,000  Level Cleveland Center
12:46AM 42.4514 -79.7925 85° East 456 525 39,000  Level Cleveland Center
12:47AM 42.4706 -79.6036 82° East 462 532 39,000  Level Cleveland Center
12:48AM 42.4794 -79.4317 86° East 462 532 39,000  Level Cleveland Center
12:49AM 42.4903 -79.2625 85° East 462 532 39,000  Level Cleveland Center
12:50AM 42.5047 -79.0933 83° East 462 532 39,000  Level Cleveland Center
12:51AM 42.5172 -78.9242 84° East 462 532 39,000  Level Cleveland Center
12:52AM 42.5269 -78.7492 86° East 462 532 39,000  Level Cleveland Center
12:53AM 42.5367 -78.5797 85° East 462 532 39,000  Level Cleveland Center
12:54AM 42.5500 -78.4044 84° East 462 532 39,000  Level Cleveland Center
12:55AM 42.5614 -78.2350 85° East 462 532 39,000  Level Cleveland Center
12:56AM 42.5703 -78.0597 86° East 462 532 39,000  Level Cleveland Center
12:57AM 42.5789 -77.8903 86° East 462 532 39,000  Level Cleveland Center
12:58AM 42.5914 -77.7150 84° East 462 532 39,000  Level Cleveland Center
12:59AM 42.5972 -77.5397 87° East 462 532 39,000  Level Cleveland Center
01:00AM 42.6075 -77.3756 85° East 477 549 39,000  Level Cleveland Center
01:01AM 42.6169 -77.2028 86° East 477 549 39,000  Level Cleveland Center
01:02AM 42.6264 -77.0275 86° East 471 542 39,000  Level Cleveland Center
01:03AM 42.6356 -76.8519 86° East 461 531 39,000  Level Cleveland Center
01:05AM 42.6443 -76.5761 85° East  Level FlightAware Approximate
01:12AM 42.6965 -75.3948 80° East  Level FlightAware Approximate
01:13AM 42.7051 -75.2261 87° East  Level FlightAware Approximate
01:14AM 42.7109 -75.0569 87° East  Level FlightAware Approximate
01:15AM 42.7165 -74.8877 87° East  Level FlightAware Approximate
01:16AM 42.7167 -74.7183 90° East  Level FlightAware Approximate
01:17AM 42.7168 -74.5489 83° East  Level FlightAware Approximate
01:18AM 42.7308 -74.3805 83° East  Level FlightAware Approximate
01:19AM 42.7333 -74.2113 90° East  Level FlightAware Approximate
01:20AM 42.7333 -74.0418 90° East  Level FlightAware Approximate
01:21AM 42.7333 -73.8724 90° East  Level FlightAware Approximate
01:22AM 42.7333 -73.8000 90° East  Level FlightAware Approximate
01:23AM 42.7491 -73.8020 90° East  Level Estimated
01:24AM 42.7491 -73.8020 90° East  Level Estimated
01:25AM 42.7491 -73.8020 90° East  Level Estimated
01:26AM 42.7491 -73.8020 90° East  Level Estimated
01:27AM 42.7491 -73.8020 90° East  Level Estimated
01:28AM 42.7491 -73.8020 90° East  Level Estimated
01:29AM 42.7491 -73.8020 90° East  Level Estimated
01:30AM 42.7491 -73.8020 90° East  Level Estimated
01:31AM 42.7491 -73.8020 90° East  Level Estimated
01:32AM 42.7491 -73.8020 90° East  Level Estimated
01:33AM 42.7491 -73.8020 90° East  Level Estimated
01:34AM 42.7491 -73.8020 90° East  Level Estimated
01:35AM 42.7491 -73.8020 90° East  Level Estimated
01:36AM 42.7491 -73.8020 90° East  Level Estimated